• Join FlightAware (Why Join?)
  • Login
  • US Flag 
04:16AM EDT


 

Airport Tracker/Info


-or-


 

Live Flight TrackerFlight Track Log ✈ SWA378 ✈ 09-May-2013 ✈ KATL - KORF

Flight Track Log - Related Links

Times and Time Zones

All times are in EDT time to prevent confusion due to time zone crossing. See the SWA378 flight status page for this flight to view local times or setup timezone preferences in your user account.

Time Position Orientation Groundspeed Altitude Reporting Facility
EDT Latitude Longitude Course Direction KTS MPH feet Rate Location/Type
06:34PM 33.6333 -84.4833 239° Southwest 182 209 2,900  Level Atlanta TRACON
06:35PM 33.6000 -84.5500 239° Southwest 261 300 6,200 2,220 Climbing Atlanta TRACON
06:37PM 33.4531 -84.5019 165° South 271 312 10,700 2,100 Climbing Atlanta Center
06:38PM 33.4556 -84.3750 89° East 305 351 13,500 2,940 Climbing Atlanta Center
06:39PM 33.4686 -84.2406 83° East 371 427 16,600 3,000 Climbing Atlanta Center
06:40PM 33.5208 -84.1211 62° Northeast 376 433 19,500 2,700 Climbing Atlanta Center
06:41PM 33.5750 -83.9939 63° Northeast 401 461 22,100 2,340 Climbing Atlanta Center
06:42PM 33.6167 -83.8567 70° East 424 488 24,200 1,980 Climbing Atlanta Center
06:43PM 33.6456 -83.7144 76° East 434 499 26,100 1,440 Climbing Atlanta Center
06:44PM 33.6889 -83.5644 71° East 455 524 27,100 1,440 Climbing Atlanta Center
06:45PM 33.7467 -83.4267 63° Northeast 464 534 29,000 960 Climbing Atlanta Center
06:46PM 33.8044 -83.2814 64° Northeast 464 534 29,100 900 Climbing Atlanta Center
06:47PM 33.8578 -83.1558 63° Northeast 469 540 30,800 2,160 Climbing Atlanta Center
06:48PM 33.9192 -82.9975 65° Northeast 469 540 33,500 2,280 Climbing Atlanta Center
06:49PM 33.9744 -82.8614 64° Northeast 456 525 35,400 1,680 Climbing Atlanta Center
06:50PM 34.0272 -82.7228 65° Northeast 456 525 36,900 1,200 Climbing Atlanta Center
06:51PM 34.0758 -82.6017 64° Northeast 441 507 37,800 540 Climbing Atlanta Center
06:52PM 34.1367 -82.4500 64° Northeast 446 513 38,000 60 Climbing Atlanta Center
06:53PM 34.1911 -82.3086 65° Northeast 446 513 38,000  Level Atlanta Center
06:54PM 34.2475 -82.1667 64° Northeast 446 513 38,000  Level Atlanta Center
06:55PM 34.3100 -82.0344 60° Northeast 446 513 38,000  Level Atlanta Center
06:56PM 34.3767 -81.9044 58° Northeast 446 513 38,000  Level Atlanta Center
06:57PM 34.4411 -81.7744 59° Northeast 451 519 38,000 60 Level Atlanta Center
06:58PM 34.5075 -81.6417 59° Northeast 451 519 38,200 480 Climbing Atlanta Center
06:59PM 34.5736 -81.5058 59° Northeast 456 525 39,000 360 Climbing Atlanta Center
07:00PM 34.6397 -81.3753 58° Northeast 456 525 39,000  Level Atlanta Center
07:01PM 34.7058 -81.2442 58° Northeast 456 525 39,000  Level Atlanta Center
07:02PM 34.7714 -81.1081 60° Northeast 456 525 39,000  Level Atlanta Center
07:03PM 34.8369 -80.9692 60° Northeast 456 525 39,000  Level Atlanta Center
07:06PM 34.9889 -80.6572 59° Northeast 461 531 39,000  Level Washington Center
07:07PM 35.0481 -80.5367 59° Northeast 454 522 39,000  Level Washington Center
07:08PM 35.1142 -80.3986 60° Northeast 454 522 39,000  Level Washington Center
07:09PM 35.1781 -80.2625 60° Northeast 454 522 39,000  Level Washington Center
07:10PM 35.2417 -80.1264 60° Northeast 459 528 39,000  Level Washington Center
07:11PM 35.3139 -79.9828 58° Northeast 452 520 39,000  Level Washington Center
07:12PM 35.3794 -79.8464 59° Northeast 447 514 39,000  Level Washington Center
07:13PM 35.4403 -79.7144 60° Northeast 452 520 39,000 -840 Level Washington Center
07:14PM 35.5053 -79.5800 59° Northeast 452 520 37,400 -1,680 Descending Washington Center
07:15PM 35.5683 -79.4428 61° Northeast 457 526 35,600 -1,860 Descending Washington Center
07:16PM 35.6311 -79.3028 61° Northeast 457 526 33,700 -1,380 Descending Washington Center
07:17PM 35.6669 -79.1561 73° East 452 520 32,900 -960 Descending Washington Center
07:18PM 35.7006 -79.0014 75° East 447 514 31,900 -960 Descending Washington Center
07:19PM 35.7364 -78.8469 74° East 453 521 31,000 -960 Descending Washington Center
07:20PM 35.7717 -78.6922 74° East 459 528 30,000 -1,140 Descending Washington Center
07:21PM 35.8003 -78.5500 76° East 464 534 28,800 -1,620 Descending Washington Center
07:22PM 35.8333 -78.3922 75° East 470 541 26,800 -1,920 Descending Washington Center
07:23PM 35.8661 -78.2397 75° East 465 535 25,000 -1,620 Descending Washington Center
07:24PM 35.8961 -78.0944 76° East 453 521 23,600 -1,320 Descending Washington Center
07:25PM 35.9264 -77.9492 76° East 447 514 22,500 -1,080 Descending Washington Center
07:26PM 35.9561 -77.8064 76° East 436 502 21,500 -780 Descending Washington Center
07:27PM 35.9961 -77.6664 71° East 431 496 21,000 -300 Descending Washington Center
07:28PM 36.0567 -77.5447 58° Northeast 421 484 21,000 -540 Level Washington Center
07:29PM 36.1169 -77.4203 59° Northeast 416 479 20,000 -1,020 Descending Washington Center
07:30PM 36.1711 -77.2978 61° Northeast 411 473 19,000 -1,020 Descending Washington Center
07:31PM 36.2269 -77.1781 60° Northeast 406 467 18,000 -1,080 Descending Washington Center
07:32PM 36.2892 -77.0428 60° Northeast 406 467 16,900 -1,080 Descending Washington Center
07:33PM 36.3447 -76.9253 60° Northeast 401 461 15,900 -1,020 Descending Washington Center
07:34PM 36.4000 -76.8383 52° Northeast 400 460 15,100 -1,680 Descending Washington Center
07:35PM 36.4656 -76.7464 48° Northeast 386 444 13,000 -2,100 Descending Washington Center
07:36PM 36.5208 -76.6386 57° Northeast 371 427 11,100 -1,740 Descending Washington Center
07:36PM 36.5336 -76.6078 63° Northeast 378 435 10,900 -900 Descending Washington Center
07:37PM 36.5717 -76.5333 58° Northeast 308 354 10,200 -1,020 Descending Washington Center
07:37PM 36.5803 -76.5128 62° Northeast 350 403 9,900 -1,320 Descending Washington Center
07:38PM 36.6142 -76.4433 59° Northeast 297 342 8,900 -1,320 Descending Washington Center
07:38PM 36.6225 -76.4253 60° Northeast 312 359 8,600 -1,440 Descending Washington Center
07:39PM 36.6564 -76.3608 57° Northeast 287 330 7,500 -1,440 Descending Washington Center
07:39PM 36.6647 -76.3403 63° Northeast 291 335 7,200 -1,500 Descending Washington Center
07:40PM 36.7028 -76.2836 50° Northeast 283 326 5,900 -1,080 Descending Washington Center
07:41PM 36.7719 -76.2142 39° Northeast 265 305 5,100 -480 Descending Washington Center
07:42PM 36.8117 -76.1756 38° Northeast 226 260 5,000 -1,080 Descending Washington Center
07:43PM 36.8661 -76.1372 29° Northeast 264 304 3,300 -1,860 Descending Washington Center